createdAt,value
2022-09-20T00:01:55.455Z,1.30
2022-09-20T00:07:04.096Z,1.10
2022-09-20T00:12:10.205Z,1.23
2022-09-20T00:17:18.940Z,0.93
2022-09-20T00:22:24.287Z,1.13
2022-09-20T00:27:30.018Z,1.10
2022-09-20T00:32:37.918Z,1.20
2022-09-20T00:37:44.793Z,1.40
2022-09-20T00:42:50.725Z,1.20
2022-09-20T00:48:04.141Z,1.03
2022-09-20T00:53:14.239Z,1.13
2022-09-20T00:58:22.411Z,1.58
2022-09-20T01:03:34.007Z,1.33
2022-09-20T01:08:39.773Z,1.33
2022-09-20T01:13:45.164Z,1.20
2022-09-20T01:18:54.470Z,1.50
2022-09-20T01:24:07.222Z,1.27
2022-09-20T01:29:26.026Z,1.20
2022-09-20T01:34:34.490Z,1.43
2022-09-20T01:39:56.381Z,1.33
2022-09-20T01:45:15.514Z,1.75
2022-09-20T01:50:35.606Z,1.40
2022-09-20T01:56:10.659Z,1.20
2022-09-20T02:01:41.821Z,1.52
2022-09-20T02:07:06.559Z,2.07
2022-09-20T02:12:38.028Z,1.57
2022-09-20T02:17:58.191Z,1.60
2022-09-20T02:23:19.666Z,1.27
2022-09-20T02:28:34.721Z,1.50
2022-09-20T02:34:02.509Z,2.00
2022-09-20T02:39:14.241Z,1.37
2022-09-20T02:44:29.229Z,1.50
2022-09-20T02:49:47.285Z,1.90
2022-09-20T02:55:00.379Z,1.23
2022-09-20T03:00:09.574Z,1.53
2022-09-20T03:05:24.748Z,1.50
2022-09-20T03:10:38.589Z,1.40
2022-09-20T03:15:55.840Z,1.37
2022-09-20T03:21:13.966Z,1.13
2022-09-20T03:26:28.943Z,1.40
2022-09-20T03:31:57.582Z,1.40
2022-09-20T03:37:30.706Z,1.50
2022-09-20T03:42:36.645Z,1.40
2022-09-20T03:48:03.473Z,1.23
2022-09-20T03:53:30.678Z,1.50
2022-09-20T03:58:58.084Z,1.80
2022-09-20T04:04:09.599Z,1.63
2022-09-20T04:09:34.468Z,1.60
2022-09-20T04:14:47.599Z,1.20
2022-09-20T04:20:00.983Z,1.70
2022-09-20T04:25:17.731Z,1.50
2022-09-20T04:30:27.003Z,1.47
2022-09-20T04:35:54.834Z,1.43
2022-09-20T04:41:20.902Z,1.55
2022-09-20T04:46:55.929Z,1.30
2022-09-20T04:52:31.715Z,1.73
2022-09-20T04:58:13.579Z,2.17
2022-09-20T05:03:40.649Z,2.03
2022-09-20T05:09:31.846Z,1.40
2022-09-20T05:15:02.743Z,2.15
2022-09-20T05:20:49.601Z,2.07
2022-09-20T05:26:14.405Z,2.00
2022-09-20T05:31:29.035Z,2.22
2022-09-20T05:36:44.596Z,2.40
2022-09-20T05:41:56.001Z,2.67
2022-09-20T05:47:19.796Z,2.25
2022-09-20T05:52:50.707Z,2.37
2022-09-20T05:58:10.685Z,2.40
2022-09-20T06:03:28.858Z,2.63
2022-09-20T06:08:57.808Z,3.07
2022-09-20T06:14:16.119Z,2.80
2022-09-20T06:19:35.172Z,3.13
2022-09-20T06:24:45.890Z,2.50
2022-09-20T06:29:56.222Z,4.07
2022-09-20T06:35:07.217Z,3.33
2022-09-20T06:40:46.499Z,3.00
2022-09-20T06:45:52.310Z,3.37
2022-09-20T06:51:01.409Z,3.83
2022-09-20T06:56:07.854Z,3.80
2022-09-20T07:01:14.083Z,3.20
2022-09-20T07:06:22.026Z,3.97
2022-09-20T07:11:28.331Z,3.70
2022-09-20T07:16:34.478Z,3.40
2022-09-20T07:21:42.951Z,3.13
2022-09-20T07:26:58.605Z,3.00
2022-09-20T07:32:04.539Z,3.03
2022-09-20T07:37:12.620Z,3.03
2022-09-20T07:42:17.971Z,2.78
2022-09-20T07:47:25.573Z,2.40
2022-09-20T07:52:33.445Z,2.25
2022-09-20T07:57:40.326Z,2.20
2022-09-20T08:02:46.447Z,2.50
2022-09-20T08:07:54.441Z,2.00
2022-09-20T08:18:28.123Z,1.50
2022-09-20T08:23:37.377Z,1.50
2022-09-20T08:28:44.539Z,1.30
2022-09-20T08:33:51.040Z,1.57
2022-09-20T08:44:35.168Z,1.60
2022-09-20T08:49:46.022Z,1.50
2022-09-20T08:54:56.368Z,2.07
2022-09-20T09:00:02.679Z,1.60
2022-09-20T09:05:34.918Z,1.58
2022-09-20T09:10:43.507Z,1.50
2022-09-20T09:15:53.381Z,1.55
2022-09-20T09:20:59.323Z,1.35
2022-09-20T09:26:11.880Z,1.40
2022-09-20T09:31:28.215Z,1.10
2022-09-20T09:36:34.027Z,1.35
2022-09-20T09:41:43.419Z,0.90
2022-09-20T09:46:50.238Z,1.07
2022-09-20T09:52:15.027Z,0.75
2022-09-20T09:57:41.378Z,1.00
2022-09-20T10:03:07.661Z,0.50
2022-09-20T10:08:23.037Z,0.85
2022-09-20T10:13:40.894Z,0.65
2022-09-20T10:18:54.632Z,0.80
2022-09-20T10:24:13.352Z,0.60
2022-09-20T10:29:32.614Z,0.80
2022-09-20T10:35:02.172Z,1.00
2022-09-20T10:40:49.268Z,0.60
2022-09-20T10:46:30.818Z,0.88
2022-09-20T10:51:44.587Z,1.20
2022-09-20T10:56:56.579Z,0.90
2022-09-20T11:02:24.265Z,1.17
2022-09-20T11:07:41.607Z,0.80
2022-09-20T11:12:51.403Z,1.00
2022-09-20T11:18:06.221Z,0.90
2022-09-20T11:23:17.421Z,0.70
2022-09-20T11:28:28.143Z,0.30
2022-09-20T11:33:41.961Z,0.38
2022-09-20T11:38:53.352Z,0.50
2022-09-20T11:44:04.185Z,0.60
2022-09-20T11:49:17.603Z,0.57
2022-09-20T11:54:40.442Z,0.40
2022-09-20T11:59:57.000Z,0.40
2022-09-20T12:05:07.738Z,0.40
2022-09-20T12:10:24.988Z,0.82
2022-09-20T12:15:33.273Z,0.83
2022-09-20T12:21:03.750Z,1.05
2022-09-20T12:26:14.622Z,0.70
2022-09-20T12:31:41.900Z,0.60
2022-09-20T12:37:25.401Z,1.02
2022-09-20T12:42:33.366Z,0.70
2022-09-20T12:47:41.621Z,0.50
2022-09-20T12:53:01.192Z,0.50
2022-09-20T12:58:12.343Z,0.90
2022-09-20T13:03:32.117Z,0.80
2022-09-20T13:08:48.433Z,0.43
2022-09-20T13:14:00.434Z,0.80
2022-09-20T13:19:09.273Z,0.75
2022-09-20T13:24:23.225Z,0.70
2022-09-20T13:29:34.851Z,0.50
2022-09-20T13:34:40.530Z,0.50
2022-09-20T13:39:49.023Z,0.57
2022-09-20T13:44:55.599Z,0.82
2022-09-20T13:50:05.017Z,0.75
2022-09-20T13:55:30.263Z,0.67
2022-09-20T14:00:37.358Z,0.70
2022-09-20T14:05:49.941Z,0.73
2022-09-20T14:11:11.237Z,0.47
2022-09-20T14:16:18.776Z,0.50
2022-09-20T14:21:28.609Z,0.70
2022-09-20T14:26:41.419Z,0.97
2022-09-20T14:31:51.060Z,0.63
2022-09-20T14:37:08.509Z,0.60
2022-09-20T14:42:23.408Z,0.70
2022-09-20T14:47:31.144Z,0.40
2022-09-20T14:52:44.192Z,0.50
2022-09-20T14:57:52.908Z,0.50
2022-09-20T15:03:05.627Z,0.83
2022-09-20T15:08:17.661Z,0.70
2022-09-20T15:13:32.652Z,0.40
2022-09-20T15:18:43.321Z,0.53
2022-09-20T15:23:49.454Z,0.45
2022-09-20T15:28:57.379Z,0.60
2022-09-20T15:34:03.028Z,0.40
2022-09-20T15:39:08.371Z,0.60
2022-09-20T15:44:19.146Z,0.88
2022-09-20T15:49:24.825Z,0.40
2022-09-20T15:54:30.266Z,0.40
2022-09-20T15:59:38.788Z,0.52
2022-09-20T16:04:44.665Z,0.50
2022-09-20T16:09:49.961Z,0.87
2022-09-20T16:14:58.322Z,0.50
2022-09-20T16:20:04.046Z,0.90
2022-09-20T16:25:11.051Z,0.80
2022-09-20T16:30:19.810Z,3.60
2022-09-20T16:35:25.577Z,0.82
2022-09-20T16:40:34.427Z,0.70
2022-09-20T16:45:42.540Z,1.02
2022-09-20T16:50:57.285Z,0.90
2022-09-20T16:56:06.257Z,0.80
2022-09-20T17:01:14.459Z,0.80
2022-09-20T17:06:20.097Z,0.65
2022-09-20T17:11:27.704Z,1.00
2022-09-20T17:16:37.923Z,0.85
2022-09-20T17:21:45.987Z,0.90
2022-09-20T17:26:53.843Z,1.30
2022-09-20T17:32:02.203Z,1.10
2022-09-20T17:37:07.741Z,1.30
2022-09-20T17:42:13.378Z,2.00
2022-09-20T17:47:22.642Z,1.20
2022-09-20T17:52:29.044Z,1.30
2022-09-20T17:57:35.089Z,1.17
2022-09-20T18:02:43.151Z,1.40
2022-09-20T18:07:48.856Z,1.77
2022-09-20T18:12:54.556Z,1.02
2022-09-20T18:18:02.714Z,1.20
2022-09-20T18:23:08.594Z,1.00
2022-09-20T18:28:14.069Z,1.00
2022-09-20T18:33:22.639Z,0.97
2022-09-20T18:38:28.514Z,0.70
2022-09-20T18:43:35.629Z,0.80
2022-09-20T18:48:44.252Z,0.80
2022-09-20T18:53:54.026Z,0.80
2022-09-20T18:59:01.699Z,0.90
2022-09-20T19:04:20.010Z,1.10
2022-09-20T19:09:34.394Z,0.82
2022-09-20T19:14:56.797Z,1.10
2022-09-20T19:20:13.397Z,0.90
2022-09-20T19:25:29.031Z,1.13
2022-09-20T19:30:35.966Z,1.48
2022-09-20T19:35:49.570Z,2.70
2022-09-20T19:41:05.024Z,1.95
2022-09-20T19:46:22.612Z,1.73
2022-09-20T19:51:32.232Z,1.30
2022-09-20T19:56:47.634Z,1.25
2022-09-20T20:01:54.402Z,0.93
2022-09-20T20:07:09.454Z,1.10
2022-09-20T20:12:25.037Z,1.00
2022-09-20T20:17:47.402Z,1.00
2022-09-20T20:23:19.709Z,1.10
2022-09-20T20:28:24.991Z,1.00
2022-09-20T20:33:32.848Z,1.10
2022-09-20T20:38:49.452Z,1.10
2022-09-20T20:43:57.310Z,1.25
2022-09-20T20:49:02.820Z,1.30
2022-09-20T20:54:11.207Z,1.40
2022-09-20T20:59:17.331Z,1.13
2022-09-20T21:04:25.281Z,1.15
2022-09-20T21:09:33.616Z,1.40
2022-09-20T21:14:39.056Z,1.50
2022-09-20T21:19:44.498Z,1.15
2022-09-20T21:24:53.364Z,1.40
2022-09-20T21:29:58.890Z,1.33
2022-09-20T21:35:04.561Z,1.85
2022-09-20T21:40:13.951Z,1.27
2022-09-20T21:45:24.182Z,1.52
2022-09-20T21:50:29.412Z,1.70
2022-09-20T21:55:38.134Z,1.90
2022-09-20T22:00:43.595Z,1.52
2022-09-20T22:05:49.425Z,1.60
2022-09-20T22:11:02.056Z,1.60
2022-09-20T22:16:09.721Z,1.40
2022-09-20T22:21:17.007Z,1.30
2022-09-20T22:26:25.995Z,1.60
2022-09-20T22:31:32.887Z,1.08
2022-09-20T22:36:40.125Z,1.00
2022-09-20T22:41:48.322Z,0.90
2022-09-20T22:46:53.740Z,1.30
2022-09-20T22:51:59.882Z,1.10
2022-09-20T22:57:08.898Z,2.20
2022-09-20T23:02:14.896Z,1.20
2022-09-20T23:07:20.681Z,1.20
2022-09-20T23:12:28.996Z,2.20
2022-09-20T23:17:34.733Z,1.40
2022-09-20T23:22:40.435Z,1.90
2022-09-20T23:27:48.698Z,1.60
2022-09-20T23:32:57.678Z,1.60
2022-09-20T23:38:03.299Z,1.60
2022-09-20T23:43:12.470Z,2.13
2022-09-20T23:48:18.083Z,1.70
2022-09-20T23:53:23.938Z,2.10
2022-09-20T23:58:32.160Z,1.67
